createdAt,value
2022-10-18T00:01:08.850Z,46.33
2022-10-18T00:06:12.107Z,44.50
2022-10-18T00:08:40.491Z,45.00
2022-10-18T00:11:08.659Z,44.33
2022-10-18T00:13:37.509Z,41.50
2022-10-18T00:16:12.974Z,41.00
2022-10-18T00:18:41.845Z,42.00
2022-10-18T00:21:18.687Z,42.50
2022-10-18T00:23:48.419Z,40.25
2022-10-18T00:26:19.680Z,41.50
2022-10-18T00:28:53.355Z,39.67
2022-10-18T00:31:24.808Z,40.75
2022-10-18T00:33:55.547Z,43.25
2022-10-18T00:36:24.958Z,39.00
2022-10-18T00:38:53.916Z,40.25
2022-10-18T00:41:25.918Z,41.50
2022-10-18T00:43:57.357Z,39.50
2022-10-18T00:46:33.330Z,41.50
2022-10-18T00:49:05.949Z,41.50
2022-10-18T00:51:41.938Z,40.00
2022-10-18T00:54:12.167Z,40.50
2022-10-18T00:56:40.638Z,40.00
2022-10-18T00:59:09.131Z,40.50
2022-10-18T01:01:38.565Z,39.67
2022-10-18T01:04:07.136Z,39.25
2022-10-18T01:06:42.585Z,45.67
2022-10-18T01:09:26.387Z,37.33
2022-10-18T01:12:33.315Z,39.50
2022-10-18T01:15:04.438Z,42.00
2022-10-18T01:18:16.227Z,38.50
2022-10-18T01:21:02.946Z,41.25
2022-10-18T01:24:04.727Z,40.25
2022-10-18T01:27:14.937Z,39.00
2022-10-18T01:29:43.122Z,34.00
2022-10-18T01:32:21.810Z,38.00
2022-10-18T01:34:53.431Z,36.75
2022-10-18T01:37:23.089Z,35.75
2022-10-18T01:39:54.927Z,39.00
2022-10-18T01:42:23.398Z,35.33
2022-10-18T01:44:53.207Z,35.00
2022-10-18T01:47:22.017Z,35.75
2022-10-18T01:49:50.247Z,37.00
2022-10-18T01:52:18.666Z,37.00
2022-10-18T01:54:49.507Z,36.25
2022-10-18T01:57:38.207Z,38.50
2022-10-18T02:00:06.409Z,34.00
2022-10-18T02:03:14.231Z,35.25
2022-10-18T02:06:18.645Z,33.75
2022-10-18T02:08:58.397Z,36.00
2022-10-18T02:11:27.850Z,34.75
2022-10-18T02:13:59.685Z,35.75
2022-10-18T02:16:37.228Z,36.00
2022-10-18T02:19:22.117Z,34.50
2022-10-18T02:21:50.707Z,34.00
2022-10-18T02:24:20.227Z,34.50
2022-10-18T02:26:48.598Z,34.75
2022-10-18T02:29:16.929Z,33.75
2022-10-18T02:31:47.819Z,34.00
2022-10-18T02:34:42.729Z,31.50
2022-10-18T02:37:12.774Z,35.50
2022-10-18T02:39:46.278Z,35.67
2022-10-18T02:42:15.471Z,32.00
2022-10-18T02:44:44.087Z,33.00
2022-10-18T02:47:13.175Z,33.25
2022-10-18T02:49:41.597Z,34.25
2022-10-18T02:52:09.827Z,32.67
2022-10-18T02:54:38.411Z,31.00
2022-10-18T02:57:06.567Z,35.50
2022-10-18T02:59:35.590Z,37.00
2022-10-18T03:02:03.907Z,34.67
2022-10-18T03:04:32.350Z,32.25
2022-10-18T03:07:00.526Z,32.00
2022-10-18T03:09:28.937Z,33.00
2022-10-18T03:11:57.395Z,33.33
2022-10-18T03:14:25.738Z,32.50
2022-10-18T03:16:53.878Z,30.75
2022-10-18T03:19:25.265Z,31.50
2022-10-18T03:21:53.598Z,29.75
2022-10-18T03:24:22.220Z,32.25
2022-10-18T03:26:50.578Z,32.25
2022-10-18T03:29:18.937Z,32.25
2022-10-18T03:31:47.082Z,29.50
2022-10-18T03:34:17.157Z,29.00
2022-10-18T03:36:45.376Z,30.00
2022-10-18T03:39:14.051Z,32.75
2022-10-18T03:41:42.289Z,33.00
2022-10-18T03:44:10.781Z,34.33
2022-10-18T03:46:38.938Z,30.67
2022-10-18T03:49:07.377Z,34.25
2022-10-18T03:51:35.638Z,31.00
2022-10-18T03:54:04.307Z,29.00
2022-10-18T03:56:33.460Z,36.00
2022-10-18T03:59:03.108Z,33.00
2022-10-18T04:01:31.720Z,36.00
2022-10-18T04:04:00.241Z,36.25
2022-10-18T04:06:28.437Z,36.25
2022-10-18T04:08:57.012Z,31.75
2022-10-18T04:11:25.410Z,36.25
2022-10-18T04:13:53.879Z,35.50
2022-10-18T04:16:22.077Z,34.67
2022-10-18T04:18:50.478Z,38.00
2022-10-18T04:21:18.667Z,36.25
2022-10-18T04:23:51.281Z,36.75
2022-10-18T04:26:19.479Z,38.50
2022-10-18T04:28:48.083Z,38.00
2022-10-18T04:31:16.398Z,37.75
2022-10-18T04:33:44.938Z,35.75
2022-10-18T04:36:13.578Z,35.25
2022-10-18T04:38:42.078Z,38.50
2022-10-18T04:41:10.196Z,34.50
2022-10-18T04:43:38.648Z,36.00
2022-10-18T04:46:06.934Z,36.33
2022-10-18T04:48:35.339Z,38.33
2022-10-18T04:51:03.689Z,34.75
2022-10-18T04:53:33.084Z,35.00
2022-10-18T04:56:01.469Z,37.50
2022-10-18T04:58:30.009Z,35.75
2022-10-18T05:00:58.326Z,35.75
2022-10-18T05:03:26.791Z,37.50
2022-10-18T05:06:01.875Z,36.75
2022-10-18T05:08:33.164Z,38.25
2022-10-18T05:11:02.270Z,40.00
2022-10-18T05:14:20.807Z,36.00
2022-10-18T05:16:49.134Z,37.50
2022-10-18T05:19:17.668Z,33.67
2022-10-18T05:21:46.519Z,36.25
2022-10-18T05:24:14.887Z,34.67
2022-10-18T05:26:43.157Z,34.50
2022-10-18T05:29:11.782Z,36.50
2022-10-18T05:32:29.998Z,35.00
2022-10-18T05:35:26.992Z,36.75
2022-10-18T05:38:05.179Z,34.00
2022-10-18T05:40:39.720Z,33.50
2022-10-18T05:43:08.054Z,34.50
2022-10-18T05:45:36.579Z,34.00
2022-10-18T05:48:05.761Z,36.00
2022-10-18T05:50:36.744Z,35.25
2022-10-18T05:53:12.256Z,37.33
2022-10-18T05:55:46.960Z,37.00
2022-10-18T05:58:15.230Z,32.00
2022-10-18T06:00:43.983Z,36.33
2022-10-18T06:03:12.351Z,35.00
2022-10-18T06:05:40.943Z,37.33
2022-10-18T06:08:10.661Z,37.50
2022-10-18T06:10:41.224Z,36.75
2022-10-18T06:13:10.363Z,35.00
2022-10-18T06:15:39.105Z,34.75
2022-10-18T06:18:08.381Z,33.75
2022-10-18T06:20:37.171Z,36.00
2022-10-18T06:23:05.481Z,36.00
2022-10-18T06:25:34.168Z,36.25
2022-10-18T06:28:07.935Z,36.25
2022-10-18T06:30:39.031Z,33.75
2022-10-18T06:33:07.360Z,36.75
2022-10-18T06:35:35.923Z,35.00
2022-10-18T06:38:04.623Z,37.67
2022-10-18T06:40:38.346Z,35.00
2022-10-18T06:43:20.102Z,33.75
2022-10-18T06:45:50.791Z,37.50
2022-10-18T06:50:58.872Z,36.25
2022-10-18T06:53:30.847Z,36.75
2022-10-18T06:56:01.800Z,35.50
2022-10-18T06:58:31.795Z,35.75
2022-10-18T07:01:00.494Z,37.33
2022-10-18T07:03:29.821Z,39.67
2022-10-18T07:06:03.133Z,39.67
2022-10-18T07:08:32.045Z,38.25
2022-10-18T07:11:00.901Z,43.25
2022-10-18T07:13:33.881Z,41.50
2022-10-18T07:16:06.202Z,40.00
2022-10-18T07:18:35.931Z,40.25
2022-10-18T07:21:06.237Z,40.00
2022-10-18T07:23:36.648Z,40.00
2022-10-18T07:26:16.338Z,40.25
2022-10-18T07:28:47.130Z,45.00
2022-10-18T07:31:16.867Z,37.33
2022-10-18T07:33:45.238Z,38.67
2022-10-18T07:36:14.217Z,39.33
2022-10-18T07:38:42.617Z,38.75
2022-10-18T07:41:13.741Z,41.00
2022-10-18T07:43:44.817Z,41.00
2022-10-18T07:46:15.368Z,40.75
2022-10-18T07:48:44.086Z,39.50
2022-10-18T07:51:13.437Z,44.00
2022-10-18T07:53:41.949Z,42.75
2022-10-18T07:56:16.609Z,39.33
2022-10-18T07:58:47.342Z,38.50
2022-10-18T08:01:16.371Z,37.00
2022-10-18T08:03:44.807Z,38.25
2022-10-18T08:06:16.498Z,37.25
2022-10-18T08:08:45.750Z,38.50
2022-10-18T08:11:15.667Z,39.75
2022-10-18T08:13:44.247Z,39.50
2022-10-18T08:19:01.914Z,41.00
2022-10-18T08:21:31.035Z,39.50
2022-10-18T08:23:59.745Z,40.50
2022-10-18T08:26:28.787Z,43.75
2022-10-18T08:29:17.531Z,43.75
2022-10-18T08:31:45.725Z,42.67
2022-10-18T08:34:18.691Z,42.50
2022-10-18T08:36:48.466Z,43.50
2022-10-18T08:39:16.980Z,40.75
2022-10-18T08:42:15.448Z,39.50
2022-10-18T08:44:51.880Z,41.00
2022-10-18T08:47:23.877Z,40.75
2022-10-18T08:49:59.057Z,40.67
2022-10-18T08:52:36.438Z,41.50
2022-10-18T08:55:29.348Z,44.33
2022-10-18T08:57:58.751Z,44.50
2022-10-18T09:00:35.013Z,46.25
2022-10-18T09:03:22.165Z,44.00
2022-10-18T09:05:56.393Z,44.25
2022-10-18T09:08:28.031Z,44.00
2022-10-18T09:11:35.069Z,43.00
2022-10-18T09:14:35.867Z,44.75
2022-10-18T09:17:23.099Z,47.00
2022-10-18T09:20:12.207Z,46.33
2022-10-18T09:22:54.429Z,47.00
2022-10-18T09:25:26.432Z,47.50
2022-10-18T09:28:14.361Z,46.00
2022-10-18T09:30:42.949Z,45.50
2022-10-18T09:33:39.862Z,42.75
2022-10-18T09:36:10.867Z,42.50
2022-10-18T09:39:09.430Z,42.00
2022-10-18T09:42:02.570Z,44.50
2022-10-18T09:44:36.619Z,41.50
2022-10-18T09:47:28.100Z,42.00
2022-10-18T09:50:03.778Z,37.25
2022-10-18T09:52:41.959Z,43.25
2022-10-18T09:55:18.076Z,40.75
2022-10-18T09:57:52.783Z,39.33
2022-10-18T10:00:32.144Z,40.00
2022-10-18T10:03:02.281Z,38.50
2022-10-18T10:05:30.694Z,37.50
2022-10-18T10:08:02.830Z,37.67
2022-10-18T10:10:32.347Z,36.50
2022-10-18T10:13:17.277Z,38.75
2022-10-18T10:15:57.906Z,36.25
2022-10-18T10:18:35.052Z,35.75
2022-10-18T10:21:08.271Z,33.50
2022-10-18T10:23:39.261Z,34.00
2022-10-18T10:26:21.251Z,33.25
2022-10-18T10:28:50.265Z,33.75
2022-10-18T10:31:24.658Z,34.67
2022-10-18T10:34:07.053Z,33.50
2022-10-18T10:36:53.431Z,32.00
2022-10-18T10:39:24.732Z,31.50
2022-10-18T10:41:58.644Z,33.00
2022-10-18T10:44:33.790Z,37.75
2022-10-18T10:47:04.742Z,33.00
2022-10-18T10:49:41.197Z,31.00
2022-10-18T10:52:27.784Z,32.00
2022-10-18T10:55:11.276Z,31.75
2022-10-18T10:57:50.724Z,29.50
2022-10-18T11:00:39.510Z,27.75
2022-10-18T11:03:28.669Z,32.00
2022-10-18T11:06:01.216Z,31.25
2022-10-18T11:08:36.697Z,29.33
2022-10-18T11:11:23.145Z,25.50
2022-10-18T11:14:24.763Z,24.75
2022-10-18T11:17:14.318Z,27.00
2022-10-18T11:19:49.142Z,28.25
2022-10-18T11:22:21.940Z,28.50
2022-10-18T11:24:50.253Z,26.25
2022-10-18T11:27:28.838Z,26.00
2022-10-18T11:30:25.231Z,25.75
2022-10-18T11:33:16.311Z,27.25
2022-10-18T11:35:51.509Z,24.25
2022-10-18T11:38:23.326Z,27.25
2022-10-18T11:40:52.008Z,24.75
2022-10-18T11:44:02.607Z,25.67
2022-10-18T11:47:03.621Z,26.67
2022-10-18T11:49:44.966Z,27.00
2022-10-18T11:52:16.350Z,27.25
2022-10-18T11:54:57.298Z,28.50
2022-10-18T11:58:13.220Z,28.75
2022-10-18T12:00:56.522Z,31.00
2022-10-18T12:03:29.761Z,30.50
2022-10-18T12:06:05.095Z,31.25
2022-10-18T12:08:39.241Z,30.50
2022-10-18T12:11:43.962Z,32.25
2022-10-18T12:14:26.443Z,31.75
2022-10-18T12:17:27.886Z,32.00
2022-10-18T12:19:48.580Z,32.50
2022-10-18T12:22:23.870Z,34.67
2022-10-18T12:24:52.830Z,32.50
2022-10-18T12:27:28.851Z,34.67
2022-10-18T12:30:04.753Z,31.00
2022-10-18T12:32:35.785Z,31.50
2022-10-18T12:35:13.801Z,30.50
2022-10-18T12:38:00.369Z,34.50
2022-10-18T12:40:40.783Z,33.00
2022-10-18T12:43:12.040Z,36.67
2022-10-18T12:45:56.154Z,38.00
2022-10-18T12:48:46.062Z,41.50
2022-10-18T12:51:23.082Z,45.25
2022-10-18T12:54:00.840Z,44.25
2022-10-18T12:56:29.167Z,45.25
2022-10-18T12:59:15.949Z,44.75
2022-10-18T13:01:53.710Z,46.00
2022-10-18T13:04:28.622Z,42.00
2022-10-18T13:07:00.122Z,44.33
2022-10-18T13:09:31.141Z,42.75
2022-10-18T13:12:19.406Z,42.50
2022-10-18T13:15:05.773Z,44.75
2022-10-18T13:17:52.821Z,44.50
2022-10-18T13:20:39.670Z,46.00
2022-10-18T13:23:11.136Z,43.50
2022-10-18T13:25:55.241Z,42.25
2022-10-18T13:28:23.551Z,43.50
2022-10-18T13:31:00.101Z,41.00
2022-10-18T13:33:40.360Z,42.67
2022-10-18T13:36:22.730Z,43.25
2022-10-18T13:38:58.042Z,42.75
2022-10-18T13:41:34.534Z,46.75
2022-10-18T13:44:40.590Z,47.25
2022-10-18T13:47:21.471Z,45.00
2022-10-18T13:50:03.275Z,46.25
2022-10-18T13:52:50.684Z,47.25
2022-10-18T13:55:53.573Z,43.75
2022-10-18T13:58:48.827Z,44.67
2022-10-18T14:01:52.758Z,45.00
2022-10-18T14:04:43.479Z,45.75
2022-10-18T14:07:12.718Z,40.50
2022-10-18T14:09:56.112Z,47.00
2022-10-18T14:12:38.979Z,46.50
2022-10-18T14:15:21.670Z,48.00
2022-10-18T14:17:53.181Z,48.00
2022-10-18T14:20:55.095Z,51.00
2022-10-18T14:23:36.622Z,50.25
2022-10-18T14:26:16.962Z,50.50
2022-10-18T14:28:59.502Z,49.00
2022-10-18T14:31:28.831Z,46.75
2022-10-18T14:33:59.071Z,51.75
2022-10-18T14:36:39.821Z,49.25
2022-10-18T14:39:23.033Z,53.33
2022-10-18T14:41:54.578Z,52.75
2022-10-18T14:44:27.053Z,52.33
2022-10-18T14:47:15.510Z,49.00
2022-10-18T14:49:45.348Z,52.67
2022-10-18T14:52:17.583Z,54.00
2022-10-18T14:54:46.658Z,57.50
2022-10-18T14:57:28.963Z,54.50
2022-10-18T15:00:02.149Z,53.50
2022-10-18T15:02:33.882Z,50.00
2022-10-18T15:05:19.779Z,49.25
2022-10-18T15:07:49.759Z,51.50
2022-10-18T15:10:24.987Z,47.75
2022-10-18T15:13:10.521Z,50.50
2022-10-18T15:15:39.917Z,51.00
2022-10-18T15:18:08.643Z,51.00
2022-10-18T15:20:42.903Z,51.00
2022-10-18T15:23:31.619Z,48.75
2022-10-18T15:26:07.661Z,54.75
2022-10-18T15:28:50.715Z,51.67
2022-10-18T15:31:26.711Z,46.25
2022-10-18T15:34:09.073Z,52.50
2022-10-18T15:36:39.557Z,52.50
2022-10-18T15:39:21.857Z,46.50
2022-10-18T15:41:59.822Z,50.75
2022-10-18T15:44:32.479Z,47.50
2022-10-18T15:47:21.375Z,42.75
2022-10-18T15:49:55.643Z,44.75
2022-10-18T15:52:35.184Z,45.33
2022-10-18T15:55:55.933Z,45.75
2022-10-18T15:58:39.480Z,42.75
2022-10-18T16:01:22.455Z,45.50
2022-10-18T16:03:51.986Z,41.75
2022-10-18T16:06:20.581Z,41.00
2022-10-18T16:08:51.467Z,39.75
2022-10-18T16:11:22.975Z,41.75
2022-10-18T16:13:55.171Z,37.00
2022-10-18T16:16:28.491Z,39.25
2022-10-18T16:18:57.773Z,41.67
2022-10-18T16:21:29.337Z,41.50
2022-10-18T16:23:58.417Z,40.75
2022-10-18T16:26:28.229Z,42.75
2022-10-18T16:28:58.185Z,41.75
2022-10-18T16:31:29.913Z,38.00
2022-10-18T16:33:58.788Z,42.00
2022-10-18T16:36:30.091Z,43.00
2022-10-18T16:39:01.083Z,40.00
2022-10-18T16:41:29.669Z,41.00
2022-10-18T16:43:58.031Z,41.25
2022-10-18T16:46:29.311Z,40.75
2022-10-18T16:48:58.573Z,39.00
2022-10-18T16:51:27.667Z,39.75
2022-10-18T16:53:56.323Z,43.50
2022-10-18T16:56:27.568Z,42.75
2022-10-18T16:58:55.806Z,45.00
2022-10-18T17:01:25.247Z,46.67
2022-10-18T17:03:54.071Z,46.75
2022-10-18T17:06:31.526Z,46.75
2022-10-18T17:09:00.198Z,44.75
2022-10-18T17:11:29.074Z,47.00
2022-10-18T17:13:57.552Z,50.00
2022-10-18T17:16:34.198Z,53.25
2022-10-18T17:19:05.629Z,54.00
2022-10-18T17:21:34.739Z,50.00
2022-10-18T17:24:04.574Z,54.25
2022-10-18T17:26:34.355Z,49.00
2022-10-18T17:29:05.619Z,55.50
2022-10-18T17:31:35.872Z,53.00
2022-10-18T17:34:04.683Z,55.00
2022-10-18T17:36:34.207Z,52.50
2022-10-18T17:39:02.866Z,54.75
2022-10-18T17:41:31.465Z,55.33
2022-10-18T17:43:59.949Z,55.50
2022-10-18T17:46:28.462Z,56.00
2022-10-18T17:48:56.913Z,59.50
2022-10-18T17:51:25.442Z,57.33
2022-10-18T17:53:54.554Z,63.75
2022-10-18T17:56:23.207Z,60.75
2022-10-18T17:58:52.511Z,60.50
2022-10-18T18:01:23.323Z,63.50
2022-10-18T18:04:00.169Z,60.00
2022-10-18T18:06:34.067Z,59.00
2022-10-18T18:09:15.451Z,57.50
2022-10-18T18:11:48.453Z,62.00
2022-10-18T18:14:16.849Z,59.50
2022-10-18T18:16:47.171Z,59.50
2022-10-18T18:19:16.241Z,61.75
2022-10-18T18:21:45.168Z,61.25
2022-10-18T18:24:14.309Z,57.75
2022-10-18T18:26:43.611Z,61.25
2022-10-18T18:29:13.052Z,61.50
2022-10-18T18:31:44.052Z,61.25
2022-10-18T18:34:12.984Z,65.75
2022-10-18T18:36:41.750Z,60.50
2022-10-18T18:39:21.553Z,63.00
2022-10-18T18:41:52.508Z,63.50
2022-10-18T18:44:22.001Z,63.50
2022-10-18T18:46:50.711Z,64.25
2022-10-18T18:49:19.073Z,67.00
2022-10-18T18:51:47.607Z,67.50
2022-10-18T18:54:16.507Z,66.50
2022-10-18T18:56:45.209Z,69.50
2022-10-18T18:59:14.550Z,70.00
2022-10-18T19:01:43.470Z,67.50
2022-10-18T19:04:12.248Z,73.00
2022-10-18T19:06:43.203Z,72.50
2022-10-18T19:09:20.220Z,75.25
2022-10-18T19:11:54.020Z,68.67
2022-10-18T19:14:25.492Z,70.75
2022-10-18T19:16:59.074Z,76.75
2022-10-18T19:19:31.289Z,73.00
2022-10-18T19:22:02.348Z,73.50
2022-10-18T19:24:31.839Z,71.75
2022-10-18T19:27:03.989Z,71.25
2022-10-18T19:29:35.597Z,71.00
2022-10-18T19:32:12.718Z,77.00
2022-10-18T19:34:42.389Z,72.00
2022-10-18T19:37:13.588Z,72.50
2022-10-18T19:39:42.988Z,75.75
2022-10-18T19:42:16.012Z,77.00
2022-10-18T19:44:48.008Z,78.50
2022-10-18T19:47:18.115Z,69.75
2022-10-18T19:49:46.886Z,69.67
2022-10-18T19:52:16.100Z,71.00
2022-10-18T19:54:45.706Z,72.33
2022-10-18T19:57:15.175Z,77.00
2022-10-18T19:59:44.391Z,75.00
2022-10-18T20:02:16.150Z,73.50
2022-10-18T20:04:44.898Z,71.25
2022-10-18T20:07:13.809Z,70.25
2022-10-18T20:09:42.560Z,72.00
2022-10-18T20:12:11.650Z,70.67
2022-10-18T20:14:42.808Z,69.75
2022-10-18T20:17:14.020Z,72.75
2022-10-18T20:19:43.265Z,73.50
2022-10-18T20:22:12.431Z,72.75
2022-10-18T20:24:41.294Z,73.50
2022-10-18T20:27:10.106Z,73.50
2022-10-18T20:29:38.818Z,70.25
2022-10-18T20:32:08.999Z,67.67
2022-10-18T20:34:37.662Z,69.75
2022-10-18T20:37:06.530Z,70.50
2022-10-18T20:39:35.400Z,67.67
2022-10-18T20:42:04.378Z,68.25
2022-10-18T20:44:34.075Z,63.33
2022-10-18T20:47:02.604Z,65.50
2022-10-18T20:49:30.843Z,62.33
2022-10-18T20:51:59.259Z,58.50
2022-10-18T20:54:27.574Z,65.75
2022-10-18T20:56:55.880Z,60.75
2022-10-18T20:59:24.139Z,60.75
2022-10-18T21:01:52.723Z,66.00
2022-10-18T21:04:21.510Z,59.50
2022-10-18T21:06:50.115Z,58.50
2022-10-18T21:09:20.402Z,57.00
2022-10-18T21:11:51.288Z,57.25
2022-10-18T21:14:21.643Z,60.00
2022-10-18T21:16:51.899Z,60.00
2022-10-18T21:19:29.341Z,58.00
2022-10-18T21:21:58.575Z,59.33
2022-10-18T21:24:27.184Z,60.00
2022-10-18T21:26:56.513Z,58.67
2022-10-18T21:29:25.224Z,57.25
2022-10-18T21:31:55.665Z,55.00
2022-10-18T21:34:24.103Z,56.25
2022-10-18T21:36:52.733Z,56.50
2022-10-18T21:41:53.264Z,54.67
2022-10-18T21:44:21.904Z,57.67
2022-10-18T21:46:50.967Z,55.00
2022-10-18T21:49:19.679Z,56.00
2022-10-18T21:51:48.202Z,55.33
2022-10-18T21:54:17.612Z,57.50
2022-10-18T21:56:46.256Z,54.50
2022-10-18T21:59:14.588Z,60.25
2022-10-18T22:01:44.829Z,59.00
2022-10-18T22:04:27.265Z,50.50
2022-10-18T22:06:55.809Z,60.75
2022-10-18T22:09:24.267Z,53.00
2022-10-18T22:11:54.133Z,54.25
2022-10-18T22:14:23.167Z,55.75
2022-10-18T22:16:52.155Z,57.25
2022-10-18T22:19:20.641Z,54.50
2022-10-18T22:21:49.658Z,52.75
2022-10-18T22:24:17.868Z,51.50
2022-10-18T22:26:47.238Z,52.00
2022-10-18T22:29:18.257Z,50.25
2022-10-18T22:31:52.324Z,53.75
2022-10-18T22:34:24.310Z,54.50
2022-10-18T22:36:53.126Z,49.00
2022-10-18T22:39:21.907Z,53.00
2022-10-18T22:41:56.000Z,52.50
2022-10-18T22:44:24.453Z,52.00
2022-10-18T22:46:53.132Z,52.33
2022-10-18T22:49:21.717Z,56.67
2022-10-18T22:51:50.307Z,56.00
2022-10-18T22:54:18.658Z,52.00
2022-10-18T22:56:47.161Z,54.75
2022-10-18T22:59:15.436Z,53.67
2022-10-18T23:01:43.832Z,52.67
2022-10-18T23:04:12.234Z,53.50
2022-10-18T23:06:41.234Z,54.00
2022-10-18T23:09:11.183Z,48.50
2022-10-18T23:11:39.703Z,53.50
2022-10-18T23:14:08.133Z,56.33
2022-10-18T23:16:36.674Z,51.00
2022-10-18T23:19:05.009Z,54.00
2022-10-18T23:21:34.434Z,50.00
2022-10-18T23:24:03.635Z,49.25
2022-10-18T23:26:32.694Z,50.33
2022-10-18T23:29:01.248Z,54.50
2022-10-18T23:31:33.178Z,52.50
2022-10-18T23:34:04.786Z,54.25
2022-10-18T23:36:34.395Z,53.50
2022-10-18T23:39:04.055Z,51.75
2022-10-18T23:41:32.932Z,52.00
2022-10-18T23:44:02.556Z,56.50
2022-10-18T23:46:31.177Z,55.00
2022-10-18T23:48:59.448Z,49.50
2022-10-18T23:51:28.314Z,51.00
2022-10-18T23:53:56.514Z,51.50
2022-10-18T23:56:25.153Z,52.25
2022-10-18T23:58:53.313Z,52.33
